Time;durP1;ratioP1;P1;durP2;ratioP2;P2;SDS_P1;SDS_P2;PMS_P1;PMS_P2;Temp;Humidity;BMP_temperature;BMP_pressure;BME280_temperature;BME280_humidity;BME280_pressure;Samples;Min_cycle;Max_cycle;Signal;HPM_P1;HPM_P2
2023/02/01 00:01:27;;;;;;;1999.90;999.90;;;;;;;-1.56;100.00;98215.56;5073994;28;20544;-80
2023/02/01 00:03:53;;;;;;;1999.90;999.90;;;;;;;-1.57;100.00;98222.00;5074195;28;20111;-80
2023/02/01 00:06:18;;;;;;;1999.90;999.90;;;;;;;-1.60;100.00;98227.78;5072750;28;20127;-80
2023/02/01 00:08:43;;;;;;;1999.90;999.90;;;;;;;-1.62;100.00;98216.44;5074491;28;20049;-85
2023/02/01 00:11:11;;;;;;;1999.90;999.90;;;;;;;-1.67;100.00;98222.44;5074544;28;20062;-85
2023/02/01 00:13:38;;;;;;;1999.90;999.90;;;;;;;-1.67;100.00;98230.47;5077079;28;20531;-83
2023/02/01 00:16:06;;;;;;;1999.90;999.90;;;;;;;-1.64;100.00;98231.91;5074727;28;20351;-82
2023/02/01 00:18:32;;;;;;;1999.90;999.90;;;;;;;-1.58;100.00;98244.47;5072690;28;20063;-81
2023/02/01 00:20:58;;;;;;;1999.90;999.90;;;;;;;-1.51;100.00;98242.59;5073767;28;20067;-81
2023/02/01 00:23:23;;;;;;;1999.90;999.90;;;;;;;-1.54;100.00;98236.84;5073759;28;20473;-79
2023/02/01 00:25:49;;;;;;;1999.90;999.90;;;;;;;-1.59;100.00;98248.19;5073972;28;20021;-83
2023/02/01 00:28:14;;;;;;;1999.90;999.90;;;;;;;-1.75;100.00;98241.41;5076592;28;20357;-80
2023/02/01 00:30:40;;;;;;;1999.90;999.90;;;;;;;-1.74;100.00;98250.28;5078415;28;20025;-83
2023/02/01 00:33:05;;;;;;;1999.90;999.90;;;;;;;-1.72;100.00;98245.53;5074893;28;20024;-81
2023/02/01 00:35:30;;;;;;;1999.90;999.90;;;;;;;-1.63;100.00;98244.28;5074937;28;20047;-81
2023/02/01 00:37:58;;;;;;;1999.90;999.90;;;;;;;-1.57;100.00;98240.75;5075399;28;20040;-80
2023/02/01 00:40:24;;;;;;;1999.90;999.90;;;;;;;-1.73;100.00;98243.91;5080898;28;20024;-83
2023/02/01 00:42:51;;;;;;;1999.90;999.90;;;;;;;-1.79;100.00;98228.66;5083460;28;20190;-83
2023/02/01 00:45:17;;;;;;;1999.90;999.90;;;;;;;-1.70;100.00;98248.84;5077312;28;20079;-85
2023/02/01 00:47:43;;;;;;;1999.90;999.90;;;;;;;-1.64;100.00;98248.00;5075096;28;20475;-83
2023/02/01 00:50:09;;;;;;;1999.90;999.90;;;;;;;-1.70;100.00;98248.84;5075231;28;20465;-84
2023/02/01 00:52:34;;;;;;;1999.90;999.90;;;;;;;-1.77;100.00;98234.63;5074541;28;20037;-83
2023/02/01 00:54:59;;;;;;;1999.90;999.90;;;;;;;-1.70;100.00;98232.75;5074758;28;20117;-82
2023/02/01 00:57:25;;;;;;;1999.90;999.90;;;;;;;-1.83;100.00;98230.94;5073968;28;20509;-82
2023/02/01 00:59:50;;;;;;;1999.90;999.90;;;;;;;-1.91;100.00;98225.78;5078535;28;20070;-84
2023/02/01 01:02:15;;;;;;;1999.90;999.90;;;;;;;-1.86;100.00;98217.13;5077710;28;20035;-81
2023/02/01 01:04:41;;;;;;;1999.90;999.90;;;;;;;-1.89;100.00;98222.91;5078061;28;20021;-83
2023/02/01 01:07:06;;;;;;;1999.90;999.90;;;;;;;-1.93;100.00;98237.75;5075423;28;20027;-83
2023/02/01 01:09:33;;;;;;;1999.90;999.90;;;;;;;-1.87;100.00;98236.91;5077672;28;20079;-82
2023/02/01 01:12:02;;;;;;;1999.90;999.90;;;;;;;-2.00;100.00;98220.84;5076560;28;20115;-84
2023/02/01 01:14:28;;;;;;;1999.90;999.90;;;;;;;-1.92;100.00;98231.34;5076329;28;20031;-82
2023/02/01 01:16:53;;;;;;;1999.90;999.90;;;;;;;-1.99;100.00;98219.81;5076983;28;20020;-83
2023/02/01 01:19:19;;;;;;;1999.90;999.90;;;;;;;-1.97;100.00;98233.84;5077175;28;20154;-82
2023/02/01 01:21:44;;;;;;;1999.90;999.90;;;;;;;-1.96;100.00;98227.44;5077990;28;20021;-81
2023/02/01 01:24:09;;;;;;;1999.90;999.90;;;;;;;-1.92;100.00;98234.88;5076946;28;20362;-83
2023/02/01 01:26:35;;;;;;;1999.90;999.90;;;;;;;-1.94;100.00;98212.00;5075936;28;20116;-80
2023/02/01 01:29:00;;;;;;;1999.90;999.90;;;;;;;-2.01;100.00;98221.91;5076232;28;20020;-83
2023/02/01 01:31:26;;;;;;;1999.90;999.90;;;;;;;-1.95;100.00;98213.84;5077107;28;20124;-82
2023/02/01 01:33:54;;;;;;;1999.90;999.90;;;;;;;-2.08;100.00;98199.66;5077709;28;20020;-81
2023/02/01 01:36:20;;;;;;;1999.90;999.90;;;;;;;-1.97;100.00;98210.53;5077898;28;20064;-83
2023/02/01 01:38:46;;;;;;;1999.90;999.90;;;;;;;-1.92;100.00;98209.94;5075098;28;20465;-85
2023/02/01 01:41:15;;;;;;;1999.90;999.90;;;;;;;-2.02;100.00;98191.59;5075899;28;20078;-84
2023/02/01 01:44:04;;;;;;;1999.90;999.90;;;;;;;-2.04;100.00;98198.19;5077622;28;20024;-80
2023/02/01 01:46:37;;;;;;;1999.90;999.90;;;;;;;-2.04;100.00;98187.50;5075290;28;20073;-82
2023/02/01 01:49:11;;;;;;;1999.90;999.90;;;;;;;-2.09;100.00;98187.28;5073194;28;20107;-78
2023/02/01 01:52:06;;;;;;;1999.90;999.90;;;;;;;-2.05;100.00;98189.34;5072579;28;20028;-83
2023/02/01 01:54:39;;;;;;;1999.90;999.90;;;;;;;-2.12;100.00;98195.72;5064063;28;20123;-83
2023/02/01 01:57:09;;;;;;;1999.90;999.90;;;;;;;-2.19;100.00;98204.59;5073049;28;20033;-83
2023/02/01 01:59:37;;;;;;;1999.90;999.90;;;;;;;-2.13;100.00;98196.78;5072926;28;20436;-80
2023/02/01 02:02:02;;;;;;;1999.90;999.90;;;;;;;-2.09;100.00;98200.66;5072811;28;20028;-78
2023/02/01 02:04:28;;;;;;;1999.90;999.90;;;;;;;-2.30;100.00;98189.19;5077761;28;20153;-81
2023/02/01 02:07:05;;;;;;;1999.90;999.90;;;;;;;-2.40;100.00;98199.47;5090610;28;20055;-82
2023/02/01 02:09:30;;;;;;;1999.90;999.90;;;;;;;-2.28;100.00;98184.44;5092121;28;20059;-82
2023/02/01 02:11:56;;;;;;;1999.90;999.90;;;;;;;-2.43;100.00;98194.53;5090771;28;20025;-79
2023/02/01 02:14:23;;;;;;;1999.90;999.90;;;;;;;-2.52;100.00;98185.06;5091822;28;20392;-80
2023/02/01 02:17:03;;;;;;;1999.90;999.90;;;;;;;-2.44;100.00;98187.53;5090254;28;20032;-82
2023/02/01 02:20:09;;;;;;;1999.90;999.90;;;;;;;-2.44;100.00;98190.22;5089462;28;20036;-82
2023/02/01 02:22:46;;;;;;;1999.90;999.90;;;;;;;-2.49;100.00;98194.53;5076000;28;20040;-85
2023/02/01 02:25:33;;;;;;;1999.90;999.90;;;;;;;-2.46;100.00;98194.97;5090587;28;20055;-80
2023/02/01 02:28:07;;;;;;;1999.90;999.90;;;;;;;-2.38;100.00;98200.09;5085769;28;20032;-82
2023/02/01 02:30:37;;;;;;;1999.90;999.90;;;;;;;-2.47;100.00;98206.69;5078417;28;20033;-82
2023/02/01 02:33:27;;;;;;;1999.90;999.90;;;;;;;-2.47;100.00;98209.34;5071274;28;20166;-81
2023/02/01 02:36:07;;;;;;;1999.90;999.90;;;;;;;-2.51;100.00;98205.47;5092047;28;20019;-83
2023/02/01 02:38:47;;;;;;;1999.90;999.90;;;;;;;-2.49;100.00;98205.25;5090422;28;20492;-82
2023/02/01 02:47:27;;;;;;;1999.90;999.90;;;;;;;-2.55;100.00;98206.06;5075661;28;20035;-83
2023/02/01 02:55:43;;;;;;;1999.90;999.90;;;;;;;-2.51;100.00;98192.09;5093701;28;20077;-81
2023/02/01 03:06:26;;;;;;;1999.90;999.90;;;;;;;-2.80;100.00;98165.72;5091527;28;20039;-82
2023/02/01 03:08:56;;;;;;;1999.90;999.90;;;;;;;-2.75;100.00;98169.41;5093009;28;20044;-84
2023/02/01 03:12:54;;;;;;;1999.90;999.90;;;;;;;-2.75;100.00;98163.25;5096275;28;20024;-81
2023/02/01 03:14:11;;;;;;;1999.90;999.90;;;;;;;-2.71;100.00;98169.84;5090984;28;20083;-81
2023/02/01 03:16:46;;;;;;;1999.90;999.90;;;;;;;-2.59;100.00;98194.13;5090805;28;20046;-79
2023/02/01 03:19:35;;;;;;;1999.90;999.90;;;;;;;-2.64;100.00;98194.75;5090909;28;20027;-81
2023/02/01 03:22:11;;;;;;;1999.90;999.90;;;;;;;-2.59;100.00;98194.94;5090850;28;20038;-80
2023/02/01 03:24:53;;;;;;;1999.90;999.90;;;;;;;-2.58;100.00;98185.06;5089305;28;20036;-81
2023/02/01 03:27:41;;;;;;;1999.90;999.90;;;;;;;-2.68;100.00;98185.47;5094418;28;20036;-82
2023/02/01 03:30:27;;;;;;;1999.90;999.90;;;;;;;-2.58;100.00;98201.97;5094967;28;20039;-79
2023/02/01 03:33:00;;;;;;;1999.90;999.90;;;;;;;-2.60;100.00;98206.69;5094833;28;20027;-81
2023/02/01 03:35:52;;;;;;;1999.90;999.90;;;;;;;-2.72;100.00;98211.00;5093354;28;20024;-81
2023/02/01 03:38:36;;;;;;;1999.90;999.90;;;;;;;-2.62;100.00;98205.25;5094413;28;20028;-78
2023/02/01 03:41:18;;;;;;;1999.90;999.90;;;;;;;-2.66;100.00;98209.38;5094959;28;20043;-78
2023/02/01 03:44:01;;;;;;;1999.90;999.90;;;;;;;-2.72;100.00;98200.28;5094574;28;20020;-77
2023/02/01 03:46:37;;;;;;;1999.90;999.90;;;;;;;-2.71;100.00;98201.94;5094712;28;20027;-78
2023/02/01 03:49:07;;;;;;;1999.90;999.90;;;;;;;-2.78;100.00;98209.16;5094294;28;20032;-80
2023/02/01 03:51:35;;;;;;;1999.90;999.90;;;;;;;-2.72;100.00;98211.81;5093207;28;20470;-79
2023/02/01 03:54:03;;;;;;;1999.90;999.90;;;;;;;-2.80;100.00;98203.19;5094569;28;20028;-77
2023/02/01 03:56:30;;;;;;;1999.90;999.90;;;;;;;-2.81;100.00;98207.72;5092811;28;20038;-78
2023/02/01 03:58:58;;;;;;;1999.90;999.90;;;;;;;-2.92;100.00;98216.34;5094359;28;20059;-79
2023/02/01 04:01:33;;;;;;;1999.90;999.90;;;;;;;-2.94;100.00;98213.03;5092830;28;20546;-78
2023/02/01 04:03:58;;;;;;;1999.90;999.90;;;;;;;-2.97;100.00;98212.63;5088234;28;20060;-79
2023/02/01 04:06:24;;;;;;;1999.90;999.90;;;;;;;-2.99;100.00;98220.84;5083084;28;20067;-81
2023/02/01 04:08:50;;;;;;;1999.90;999.90;;;;;;;-3.02;100.00;98212.41;5073510;28;20044;-80
2023/02/01 04:11:16;;;;;;;1999.90;999.90;;;;;;;-3.10;100.00;98207.25;5090270;28;20036;-80
2023/02/01 04:13:42;;;;;;;1999.90;999.90;;;;;;;-3.03;100.00;98216.09;5094055;28;20020;-81
2023/02/01 04:16:07;;;;;;;1999.90;999.90;;;;;;;-3.00;100.00;98215.69;5093800;28;20032;-84
2023/02/01 04:18:33;;;;;;;1999.90;999.90;;;;;;;-3.17;100.00;98227.81;5094287;28;20036;-83
2023/02/01 04:20:58;;;;;;;1999.90;999.90;;;;;;;-3.09;100.00;98215.06;5093695;28;20020;-81
2023/02/01 04:23:23;;;;;;;1999.90;999.90;;;;;;;-3.04;100.00;98227.84;5076594;28;20510;-79
2023/02/01 04:25:49;;;;;;;1999.90;999.90;;;;;;;-3.01;100.00;98222.09;5073254;28;20025;-77
2023/02/01 04:28:14;;;;;;;1999.90;999.90;;;;;;;-3.07;100.00;98222.91;5072697;28;20059;-79
2023/02/01 04:30:39;;;;;;;1999.90;999.90;;;;;;;-3.04;100.00;98217.16;5071692;28;20064;-78
2023/02/01 04:33:05;;;;;;;1999.90;999.90;;;;;;;-2.96;100.00;98222.28;5073024;28;20078;-78
2023/02/01 04:35:30;;;;;;;1999.90;999.90;;;;;;;-3.01;100.00;98222.09;5072744;28;20120;-77
2023/02/01 04:37:56;;;;;;;1999.90;999.90;;;;;;;-2.93;100.00;98216.53;5073077;28;20032;-78
2023/02/01 04:40:21;;;;;;;1999.90;999.90;;;;;;;-3.02;100.00;98215.91;5077819;28;20073;-78
2023/02/01 04:42:46;;;;;;;1999.90;999.90;;;;;;;-3.07;100.00;98222.91;5072977;28;20025;-78
2023/02/01 04:45:12;;;;;;;1999.90;999.90;;;;;;;-3.11;100.00;98210.94;5072836;28;20136;-81
2023/02/01 04:47:38;;;;;;;1999.90;999.90;;;;;;;-3.06;100.00;98225.38;5072733;28;20016;-77
2023/02/01 04:50:05;;;;;;;1999.90;999.90;;;;;;;-3.11;100.00;98216.31;5072885;28;20051;-77
2023/02/01 04:52:31;;;;;;;1999.90;999.90;;;;;;;-3.18;100.00;98215.44;5072504;28;20393;-78
2023/02/01 04:54:59;;;;;;;1999.90;999.90;;;;;;;-3.02;100.00;98215.91;5079004;28;20030;-81
2023/02/01 04:57:24;;;;;;;1999.90;999.90;;;;;;;-3.11;100.00;98224.31;5094246;28;20059;-81
2023/02/01 04:59:50;;;;;;;1999.90;999.90;;;;;;;-3.08;100.00;98227.44;5094178;28;20078;-81
2023/02/01 05:02:15;;;;;;;1999.90;999.90;;;;;;;-3.15;100.00;98237.28;5100675;28;20036;-82
2023/02/01 05:04:41;;;;;;;1999.90;999.90;;;;;;;-3.31;100.00;98211.72;5110695;28;20594;-83
2023/02/01 05:07:06;;;;;;;1999.90;999.90;;;;;;;-3.33;100.00;98215.63;5099910;28;20034;-81
2023/02/01 05:09:31;;;;;;;1999.90;999.90;;;;;;;-3.15;100.00;98231.09;5093914;28;20064;-85
2023/02/01 05:14:41;;;;;;;1999.90;999.90;;;;;;;-3.21;100.00;98222.03;5094863;28;20039;-82
2023/02/01 05:17:06;;;;;;;1999.90;999.90;;;;;;;-3.18;100.00;98215.44;5094812;28;20024;-84
2023/02/01 05:19:31;;;;;;;1999.90;999.90;;;;;;;-3.14;100.00;98233.59;5094448;28;20020;-83
2023/02/01 05:21:57;;;;;;;1999.90;999.90;;;;;;;-3.35;100.00;98221.16;5094832;28;20069;-82
2023/02/01 05:24:22;;;;;;;1999.90;999.90;;;;;;;-3.31;100.00;98214.41;5094870;28;20802;-83
2023/02/01 05:26:49;;;;;;;1999.90;999.90;;;;;;;-3.15;100.00;98231.94;5093761;28;20110;-82
2023/02/01 05:29:16;;;;;;;1999.90;999.90;;;;;;;-3.18;100.00;98229.66;5094213;28;20016;-82
2023/02/01 05:31:44;;;;;;;1999.90;999.90;;;;;;;-3.17;100.00;98235.84;5094955;28;20129;-82
2023/02/01 05:34:11;;;;;;;1999.90;999.90;;;;;;;-3.29;100.00;98225.69;5094795;28;20016;-83
2023/02/01 05:36:36;;;;;;;1999.90;999.90;;;;;;;-3.20;100.00;98236.22;5095286;28;20504;-82
2023/02/01 05:39:01;;;;;;;1999.90;999.90;;;;;;;-3.21;100.00;98234.56;5094568;28;20035;-84
2023/02/01 05:41:27;;;;;;;1999.90;999.90;;;;;;;-3.18;100.00;98226.16;5095886;28;20027;-85
2023/02/01 05:43:52;;;;;;;1999.90;999.90;;;;;;;-3.37;100.00;98225.91;5096041;28;20035;-81
2023/02/01 05:46:18;;;;;;;1999.90;999.90;;;;;;;-3.27;100.00;98241.56;5092890;28;20058;-84
2023/02/01 05:48:43;;;;;;;1999.90;999.90;;;;;;;-3.37;100.00;98236.59;5093553;28;20032;-80
2023/02/01 05:51:10;;;;;;;1999.90;999.90;;;;;;;-3.34;100.00;98252.22;5097199;28;20034;-83
2023/02/01 05:53:35;;;;;;;1999.90;999.90;;;;;;;-3.27;100.00;98245.06;5098847;28;20035;-82
2023/02/01 05:56:01;;;;;;;1999.90;999.90;;;;;;;-3.28;100.00;98254.09;5099869;28;20029;-81
2023/02/01 05:58:27;;;;;;;1999.90;999.90;;;;;;;-3.38;100.00;98232.25;5102238;28;20027;-83
2023/02/01 06:00:52;;;;;;;1999.90;999.90;;;;;;;-3.40;100.00;98228.97;5103084;28;20087;-83
2023/02/01 06:03:18;;;;;;;1999.90;999.90;;;;;;;-3.38;100.00;98237.59;5102222;28;20024;-82
2023/02/01 06:05:45;;;;;;;1999.90;999.90;;;;;;;-3.32;100.00;98228.78;5090545;28;20016;-81
2023/02/01 06:08:10;;;;;;;1999.90;999.90;;;;;;;-3.26;100.00;98233.31;5095246;28;20032;-80
2023/02/01 06:10:36;;;;;;;1999.90;999.90;;;;;;;-3.34;100.00;98230.00;5103980;28;20036;-83
2023/02/01 06:13:03;;;;;;;1999.90;999.90;;;;;;;-3.35;100.00;98234.53;5089147;28;20060;-83
2023/02/01 06:15:29;;;;;;;1999.90;999.90;;;;;;;-3.29;100.00;98236.41;5081908;28;20032;-82
2023/02/01 06:17:54;;;;;;;1999.90;999.90;;;;;;;-3.25;100.00;98234.16;5085414;28;20048;-80
2023/02/01 06:20:20;;;;;;;1999.90;999.90;;;;;;;-3.08;100.00;98232.78;5094069;28;20073;-84
2023/02/01 06:22:46;;;;;;;1999.90;999.90;;;;;;;-3.25;100.00;98236.81;5090960;28;20100;-78
2023/02/01 06:25:11;;;;;;;1999.90;999.90;;;;;;;-3.28;100.00;98227.38;5098057;28;20077;-79
2023/02/01 06:27:37;;;;;;;1999.90;999.90;;;;;;;-3.20;100.00;98231.72;5093049;28;20030;-81
2023/02/01 06:30:04;;;;;;;1999.90;999.90;;;;;;;-3.14;100.00;98238.09;5082367;28;20411;-77
2023/02/01 06:32:29;;;;;;;1999.90;999.90;;;;;;;-3.18;100.00;98229.66;5071514;28;20046;-83
2023/02/01 06:34:55;;;;;;;1999.90;999.90;;;;;;;-3.07;100.00;98244.31;5085716;28;20396;-83
2023/02/01 06:37:21;;;;;;;1999.90;999.90;;;;;;;-3.03;100.00;98257.06;5093393;28;20093;-83
2023/02/01 06:39:47;;;;;;;1999.90;999.90;;;;;;;-2.82;100.00;98253.41;5090842;28;20476;-78
2023/02/01 06:42:12;;;;;;;1999.90;999.90;;;;;;;-2.80;100.00;98252.19;5092188;28;20043;-78
2023/02/01 06:44:37;;;;;;;1999.90;999.90;;;;;;;-2.61;100.00;98239.03;5090517;28;20035;-76
2023/02/01 06:47:04;;;;;;;1999.90;999.90;;;;;;;-2.57;100.00;98235.75;5090366;28;20038;-75
2023/02/01 06:49:29;;;;;;;1999.90;999.90;;;;;;;-2.49;100.00;98238.22;5086761;28;20111;-74
2023/02/01 06:51:54;;;;;;;1999.90;999.90;;;;;;;-2.05;100.00;98255.50;5090164;28;20075;-75
2023/02/01 06:54:20;;;;;;;1999.90;999.90;;;;;;;-2.00;100.00;98253.81;5083296;28;20012;-78
2023/02/01 06:56:45;;;;;;;1999.90;999.90;;;;;;;-2.00;100.00;98245.78;5081300;28;20032;-78
2023/02/01 06:59:11;;;;;;;1999.90;999.90;;;;;;;-1.93;100.00;98253.81;5090911;28;20028;-80
2023/02/01 07:01:37;;;;;;;1999.90;999.90;;;;;;;-1.73;100.00;98270.72;5091352;28;20024;-77
2023/02/01 07:04:02;;;;;;;1999.90;999.90;;;;;;;-1.57;100.00;98270.25;5090827;28;20035;-79
2023/02/01 07:06:28;;;;;;;1999.90;999.90;;;;;;;-1.26;100.00;98254.25;5091254;28;20026;-82
2023/02/01 07:08:55;;;;;;;1999.90;999.90;;;;;;;-0.83;100.00;98259.00;5091930;28;20518;-79
2023/02/01 07:11:21;;;;;;;1999.90;999.90;;;;;;;-0.09;100.00;98270.66;5097722;28;20016;-79
2023/02/01 07:13:47;;;;;;;1999.90;999.90;;;;;;;0.37;100.00;98259.47;5097952;28;20507;-82
2023/02/01 07:16:17;;;;;;;1999.90;999.90;;;;;;;1.15;100.00;98278.44;5081119;28;20037;-83
2023/02/01 07:18:42;;;;;;;1999.90;999.90;;;;;;;1.58;100.00;98268.28;5070340;28;20030;-81
2023/02/01 07:21:09;;;;;;;1999.90;999.90;;;;;;;1.66;100.00;98277.91;5070982;28;20109;-85
2023/02/01 07:23:35;;;;;;;1999.90;999.90;;;;;;;1.41;100.00;98266.47;5082782;28;20099;-84
2023/02/01 07:26:04;;;;;;;1999.90;999.90;;;;;;;1.28;100.00;98275.56;5090394;28;20016;-81
2023/02/01 07:28:32;;;;;;;1999.90;999.90;;;;;;;1.26;100.00;98268.75;5091244;28;20048;-81
2023/02/01 07:31:10;;;;;;;1999.90;999.90;;;;;;;1.37;100.00;98254.50;5091624;28;20028;-82
2023/02/01 07:33:36;;;;;;;1999.90;999.90;;;;;;;2.12;100.00;98259.13;5091702;28;20024;-78
2023/02/01 07:36:06;;;;;;;1999.90;999.90;;;;;;;2.09;100.00;98274.94;5093773;28;20495;-83
2023/02/01 07:38:32;;;;;;;1999.90;999.90;;;;;;;2.46;100.00;98270.13;5093552;28;20062;-83
2023/02/01 07:41:02;;;;;;;1999.90;999.90;;;;;;;3.14;100.00;98273.75;5090957;28;20062;-83
2023/02/01 07:43:29;;;;;;;1999.90;999.90;;;;;;;3.86;100.00;98275.91;5091966;28;20231;-85
2023/02/01 07:45:55;;;;;;;1999.90;999.90;;;;;;;4.66;91.30;98281.78;5091431;28;20036;-82
2023/02/01 07:48:22;;;;;;;1999.90;999.90;;;;;;;5.05;87.60;98293.41;5090996;28;20024;-83
2023/02/01 07:50:48;;;;;;;1999.90;999.90;;;;;;;5.34;85.12;98278.59;5091431;28;20103;-81
2023/02/01 07:53:14;;;;;;;1999.90;999.90;;;;;;;5.96;81.84;98302.63;5091819;28;20031;-83
2023/02/01 07:55:40;;;;;;;1999.90;999.90;;;;;;;6.01;80.24;98289.94;5089693;28;20016;-82
2023/02/01 07:58:06;;;;;;;1999.90;999.90;;;;;;;5.86;79.81;98287.88;5091050;28;20032;-82
2023/02/01 08:03:15;;;;;;;1999.90;999.90;;;;;;;6.35;78.00;98291.31;5091308;28;20557;-82
2023/02/01 08:05:42;;;;;;;1999.90;999.90;;;;;;;6.89;74.65;98291.94;5091261;28;20020;-86
2023/02/01 08:08:07;;;;;;;1999.90;999.90;;;;;;;6.41;76.42;98290.28;5091181;28;20125;-84
2023/02/01 08:10:34;;;;;;;1999.90;999.90;;;;;;;7.28;72.03;98281.53;5091608;28;20444;-85
2023/02/01 08:13:01;;;;;;;1999.90;999.90;;;;;;;7.95;69.37;98289.63;5092193;28;20028;-85
2023/02/01 08:15:27;;;;;;;1999.90;999.90;;;;;;;8.14;66.42;98276.28;5094810;28;20026;-81
2023/02/01 08:17:54;;;;;;;1999.90;999.90;;;;;;;7.59;68.14;98284.34;5093052;28;20032;-84
2023/02/01 08:20:22;;;;;;;1999.90;999.90;;;;;;;8.28;65.10;98274.69;5093636;28;20024;-83
2023/02/01 08:22:47;;;;;;;1999.90;999.90;;;;;;;7.79;66.06;98270.78;5094749;28;20027;-82
2023/02/01 08:25:13;;;;;;;1999.90;999.90;;;;;;;7.59;67.35;98268.00;5095239;28;20020;-83
2023/02/01 08:27:38;;;;;;;1999.90;999.90;;;;;;;8.16;64.69;98252.31;5096190;28;20047;-83
2023/02/01 08:30:06;;;;;;;1999.90;999.90;;;;;;;7.80;64.89;98246.00;5092962;28;20004;-84
2023/02/01 08:32:33;;;;;;;1999.90;999.90;;;;;;;8.69;61.80;98272.75;5095374;28;20480;-81
2023/02/01 08:34:58;;;;;;;1999.90;999.90;;;;;;;8.59;60.49;98279.03;5095342;28;20085;-84
2023/02/01 08:37:24;;;;;;;1999.90;999.90;;;;;;;8.77;60.68;98257.75;5095560;28;20426;-87
2023/02/01 08:39:50;;;;;;;1999.90;999.90;;;;;;;8.95;58.98;98268.88;5095278;28;20128;-84
2023/02/01 08:45:00;;;;;;;1999.90;999.90;;;;;;;8.66;56.64;98283.38;5095101;28;20515;-88
2023/02/01 08:47:25;;;;;;;1999.90;999.90;;;;;;;9.10;56.24;98277.00;5093797;28;20044;-85
2023/02/01 08:49:51;;;;;;;1999.90;999.90;;;;;;;9.73;54.61;98290.94;5096101;28;20111;-86
2023/02/01 08:52:16;;;;;;;1999.90;999.90;;;;;;;9.33;53.83;98288.41;5096948;28;20054;-84
2023/02/01 08:54:42;;;;;;;1999.90;999.90;;;;;;;10.84;51.77;98284.63;5094797;28;20410;-85
2023/02/01 08:57:09;;;;;;;1999.90;999.90;;;;;;;10.65;50.42;98290.00;5095456;28;20028;-86
2023/02/01 08:59:35;;;;;;;1999.90;999.90;;;;;;;10.26;51.18;98300.19;5096305;28;20073;-87
2023/02/01 09:02:00;;;;;;;1999.90;999.90;;;;;;;9.69;52.79;98285.22;5097789;28;20484;-85
2023/02/01 09:04:25;;;;;;;1999.90;999.90;;;;;;;10.40;51.69;98270.28;5100174;28;20084;-86
2023/02/01 09:06:51;;;;;;;1999.90;999.90;;;;;;;10.42;50.42;98289.97;5100523;28;20089;-82
2023/02/01 09:09:16;;;;;;;1999.90;999.90;;;;;;;10.68;50.08;98278.50;5099339;28;20052;-84
2023/02/01 09:11:42;;;;;;;1999.90;999.90;;;;;;;11.33;47.98;98284.41;5098113;28;20034;-84
2023/02/01 09:14:07;;;;;;;1999.90;999.90;;;;;;;10.20;50.75;98274.00;5096226;28;20028;-86
2023/02/01 09:16:32;;;;;;;1999.90;999.90;;;;;;;11.76;48.00;98260.56;5097964;28;20357;-87
2023/02/01 09:18:58;;;;;;;1999.90;999.90;;;;;;;11.67;46.45;98268.63;5098900;28;20043;-85
2023/02/01 09:21:23;;;;;;;1999.90;999.90;;;;;;;11.45;46.60;98265.63;5098418;28;20043;-87
2023/02/01 09:23:51;;;;;;;1999.90;999.90;;;;;;;12.28;44.56;98278.69;5099405;28;20024;-86
2023/02/01 09:26:16;;;;;;;1999.90;999.90;;;;;;;12.08;44.87;98262.56;5101172;28;20024;-88
2023/02/01 09:28:41;;;;;;;1999.90;999.90;;;;;;;11.45;46.12;98284.78;5101148;28;20031;-84
2023/02/01 09:31:07;;;;;;;1999.90;999.90;;;;;;;10.73;48.11;98288.59;5101457;28;20056;-84
2023/02/01 09:33:32;;;;;;;1999.90;999.90;;;;;;;10.54;48.90;98288.47;5101311;28;20491;-87
2023/02/01 09:36:04;;;;;;;1999.90;999.90;;;;;;;10.15;51.10;98293.97;5100691;28;20026;-86
2023/02/01 09:38:30;;;;;;;1999.90;999.90;;;;;;;11.07;48.18;98283.03;5099749;28;20044;-86
2023/02/01 09:40:57;;;;;;;1999.90;999.90;;;;;;;10.87;49.09;98275.06;5103609;28;20034;-85
2023/02/01 09:44:00;;;;;;;1999.90;999.90;;;;;;;11.41;47.82;98286.47;5102644;28;20036;-83
2023/02/01 09:46:32;;;;;;;1999.90;999.90;;;;;;;11.70;46.27;98283.69;5102605;28;20380;-83
2023/02/01 09:49:04;;;;;;;1999.90;999.90;;;;;;;12.53;44.69;98300.25;5100301;28;20398;-88
2023/02/01 09:51:36;;;;;;;1999.90;999.90;;;;;;;12.06;45.10;98292.22;5098759;28;20097;-87
2023/02/01 09:54:20;;;;;;;1999.90;999.90;;;;;;;11.62;45.94;98287.06;5097544;28;20024;-86
2023/02/01 09:56:52;;;;;;;1999.90;999.90;;;;;;;11.61;46.44;98291.72;5102889;28;20050;-85
2023/02/01 09:59:28;;;;;;;1999.90;999.90;;;;;;;11.30;47.43;98287.72;5103477;28;20061;-84
2023/02/01 10:01:54;;;;;;;1999.90;999.90;;;;;;;10.81;48.54;98276.22;5103474;28;20020;-84
2023/02/01 10:04:20;;;;;;;1999.90;999.90;;;;;;;11.30;47.56;98265.81;5099532;28;20396;-84
2023/02/01 10:07:02;;;;;;;1999.90;999.90;;;;;;;12.77;44.38;98280.91;5099582;28;20035;-84
2023/02/01 10:09:55;;;;;;;1999.90;999.90;;;;;;;12.40;44.18;98287.31;5098415;28;20052;-87
2023/02/01 10:12:54;;;;;;;1999.90;999.90;;;;;;;12.48;44.13;98283.06;5102448;28;20520;-88
2023/02/01 10:15:26;;;;;;;1999.90;999.90;;;;;;;11.44;46.33;98274.94;5097424;28;20022;-88
2023/02/01 10:18:01;;;;;;;1999.90;999.90;;;;;;;11.28;47.76;98270.75;5103566;28;20066;-87
2023/02/01 10:20:53;;;;;;;1999.90;999.90;;;;;;;12.29;45.49;98274.84;5098734;28;20028;-84
2023/02/01 10:23:54;;;;;;;1999.90;999.90;;;;;;;12.36;44.17;98272.56;5096740;28;20426;-87
2023/02/01 10:26:21;;;;;;;1999.90;999.90;;;;;;;12.30;43.72;98262.78;5096242;28;20020;-86
2023/02/01 10:28:55;;;;;;;1999.90;999.90;;;;;;;12.06;44.28;98256.59;5096406;28;20032;-83
2023/02/01 10:31:26;;;;;;;1999.90;999.90;;;;;;;12.00;43.40;98260.50;5097056;28;20356;-86
2023/02/01 10:33:57;;;;;;;1999.90;999.90;;;;;;;12.27;43.75;98244.19;5098748;28;20113;-88
2023/02/01 10:36:34;;;;;;;1999.90;999.90;;;;;;;12.79;41.51;98246.56;5098752;28;20032;-84
2023/02/01 10:39:01;;;;;;;1999.90;999.90;;;;;;;12.93;41.85;98243.03;5097155;28;20038;-89
2023/02/01 10:41:39;;;;;;;1999.90;999.90;;;;;;;12.47;43.30;98246.56;5079281;28;20024;-86
2023/02/01 10:44:10;;;;;;;1999.90;999.90;;;;;;;12.51;42.76;98244.88;5080613;28;20050;-88
2023/02/01 10:46:36;;;;;;;1999.90;999.90;;;;;;;12.04;43.95;98236.84;5079392;28;20052;-81
2023/02/01 10:49:04;;;;;;;1999.90;999.90;;;;;;;12.17;44.20;98228.69;5078074;28;20035;-82
2023/02/01 10:51:44;;;;;;;1999.90;999.90;;;;;;;12.42;43.84;98227.47;5081143;28;20473;-85
2023/02/01 10:54:21;;;;;;;1999.90;999.90;;;;;;;11.85;45.72;98225.09;5083791;28;20033;-85
2023/02/01 10:56:49;;;;;;;1999.90;999.90;;;;;;;11.95;45.42;98220.28;5079087;28;20028;-86
2023/02/01 10:59:17;;;;;;;1999.90;999.90;;;;;;;12.62;44.02;98207.91;5076996;28;20028;-85
2023/02/01 11:01:46;;;;;;;1999.90;999.90;;;;;;;12.70;43.75;98190.72;5080420;28;20024;-85
2023/02/01 11:04:15;;;;;;;1999.90;999.90;;;;;;;12.39;43.67;98194.31;5080161;28;20063;-87
2023/02/01 11:06:46;;;;;;;1999.90;999.90;;;;;;;11.78;45.33;98193.38;5077582;28;20028;-84
2023/02/01 11:09:23;;;;;;;1999.90;999.90;;;;;;;11.38;47.06;98204.91;5081686;28;20045;-80
2023/02/01 11:11:49;;;;;;;1999.90;999.90;;;;;;;10.94;48.94;98193.41;5082237;28;20033;-85
2023/02/01 11:14:32;;;;;;;1999.90;999.90;;;;;;;11.38;47.15;98185.72;5084145;28;20032;-83
2023/02/01 11:17:00;;;;;;;1999.90;999.90;;;;;;;12.01;46.34;98191.66;5084363;28;20025;-83
2023/02/01 11:19:27;;;;;;;1999.90;999.90;;;;;;;11.92;45.60;98189.91;5085391;28;20056;-83
2023/02/01 11:21:54;;;;;;;1999.90;999.90;;;;;;;12.42;44.89;98178.09;5082370;28;20025;-88
2023/02/01 11:24:33;;;;;;;1999.90;999.90;;;;;;;12.71;44.45;98188.81;5079957;28;20036;-86
2023/02/01 11:27:02;;;;;;;1999.90;999.90;;;;;;;11.94;45.73;98180.25;5078635;28;20028;-91